createdAt,value
2019-04-14T00:00:36.907Z,0.90
2019-04-14T00:04:40.462Z,0.90
2019-04-14T00:08:43.628Z,0.80
2019-04-14T00:12:46.762Z,0.80
2019-04-14T00:16:49.068Z,1.00
2019-04-14T00:20:51.271Z,1.10
2019-04-14T00:24:53.297Z,1.10
2019-04-14T00:28:57.911Z,1.10
2019-04-14T00:33:04.398Z,1.20
2019-04-14T00:37:14.091Z,1.20
2019-04-14T00:41:18.036Z,1.20
2019-04-14T00:45:34.927Z,1.20
2019-04-14T00:49:25.411Z,1.20
2019-04-14T00:53:27.536Z,1.10
2019-04-14T00:57:29.421Z,1.00
2019-04-14T01:01:31.345Z,1.00
2019-04-14T01:05:34.536Z,0.90
2019-04-14T01:09:37.018Z,0.80
2019-04-14T01:13:39.746Z,0.70
2019-04-14T01:17:41.851Z,0.60
2019-04-14T01:21:43.727Z,0.60
2019-04-14T01:25:45.645Z,0.60
2019-04-14T01:29:47.552Z,0.60
2019-04-14T01:33:49.449Z,0.60
2019-04-14T01:37:51.359Z,0.60
2019-04-14T01:41:54.291Z,0.60
2019-04-14T01:46:05.270Z,0.50
2019-04-14T01:49:59.994Z,0.50
2019-04-14T01:54:15.453Z,0.50
2019-04-14T01:58:19.070Z,0.50
2019-04-14T02:02:22.734Z,0.50
2019-04-14T02:06:24.712Z,0.50
2019-04-14T02:10:27.954Z,0.40
2019-04-14T02:14:30.182Z,0.40
2019-04-14T02:18:34.081Z,0.40
2019-04-14T02:22:36.045Z,0.30
2019-04-14T02:26:39.322Z,0.40
2019-04-14T02:30:53.934Z,0.30
2019-04-14T02:35:16.702Z,0.30
2019-04-14T02:43:25.425Z,0.20
2019-04-14T02:55:34.097Z,0.10
2019-04-14T02:59:39.121Z,0.10
2019-04-14T03:03:41.551Z,0.00
2019-04-14T03:07:48.225Z,0.00
2019-04-14T03:11:45.896Z,0.00
2019-04-14T03:15:57.386Z,0.00
2019-04-14T03:20:07.055Z,0.00
2019-04-14T03:24:07.064Z,0.00
2019-04-14T03:28:38.433Z,0.00
2019-04-14T03:44:42.054Z,0.00
2019-04-14T03:53:09.577Z,0.00
2019-04-14T03:56:53.567Z,0.00
2019-04-14T04:00:55.717Z,0.00
2019-04-14T04:04:57.770Z,0.00
2019-04-14T04:08:59.736Z,0.00
2019-04-14T04:13:12.593Z,-0.10
2019-04-14T04:17:23.222Z,-0.10
2019-04-14T04:21:24.948Z,-0.10
2019-04-14T04:25:37.871Z,-0.10
2019-04-14T04:29:41.970Z,-0.20
2019-04-14T04:33:45.805Z,-0.20
2019-04-14T04:37:52.351Z,-0.20
2019-04-14T04:41:54.281Z,-0.30
2019-04-14T04:45:56.487Z,-0.30
2019-04-14T04:49:58.403Z,-0.30
2019-04-14T04:54:01.607Z,-0.20
2019-04-14T04:58:03.643Z,-0.30
2019-04-14T05:02:05.565Z,-0.30
2019-04-14T05:06:48.342Z,-0.20
2019-04-14T05:10:52.457Z,-0.20
2019-04-14T05:15:00.725Z,1.60
2019-04-14T05:19:14.020Z,-0.20
2019-04-14T05:23:06.465Z,-0.70
2019-04-14T05:27:08.388Z,-0.10
2019-04-14T05:31:10.291Z,0.00
2019-04-14T05:35:12.203Z,0.10
2019-04-14T05:39:14.122Z,0.20
2019-04-14T05:43:28.279Z,0.30
2019-04-14T05:47:19.810Z,0.30
2019-04-14T05:51:23.268Z,0.50
2019-04-14T05:55:26.312Z,0.60
2019-04-14T05:59:28.590Z,0.70
2019-04-14T06:03:32.048Z,0.80
2019-04-14T06:07:35.021Z,0.90
2019-04-14T06:11:37.015Z,0.90
2019-04-14T06:15:38.931Z,1.00
2019-04-14T06:19:42.090Z,1.10
2019-04-14T06:23:44.003Z,1.10
2019-04-14T06:27:45.911Z,1.10
2019-04-14T06:32:04.180Z,1.10
2019-04-14T06:36:11.795Z,1.10
2019-04-14T06:40:13.709Z,1.10
2019-04-14T06:44:15.622Z,1.30
2019-04-14T06:48:17.548Z,1.50
2019-04-14T06:52:19.477Z,1.60
2019-04-14T06:56:21.377Z,1.70
2019-04-14T07:00:23.282Z,1.80
2019-04-14T07:04:25.295Z,1.80
2019-04-14T07:08:29.788Z,1.80
2019-04-14T07:12:30.824Z,1.80
2019-04-14T07:16:35.127Z,1.90
2019-04-14T07:20:38.078Z,2.10
2019-04-14T07:24:40.084Z,2.10
2019-04-14T07:28:42.171Z,2.20
2019-04-14T07:32:49.362Z,2.20
2019-04-14T07:36:58.763Z,2.30
2019-04-14T07:41:08.198Z,2.50
2019-04-14T07:45:14.905Z,2.80
2019-04-14T07:49:34.759Z,3.20
2019-04-14T07:53:38.388Z,3.20
2019-04-14T07:57:44.980Z,3.60
2019-04-14T08:01:57.672Z,3.90
2019-04-14T08:05:59.596Z,4.10
2019-04-14T08:10:01.707Z,4.30
2019-04-14T08:14:05.499Z,4.40
2019-04-14T08:18:07.366Z,4.60
2019-04-14T08:22:09.276Z,4.60
2019-04-14T08:26:11.198Z,4.50
2019-04-14T08:30:13.266Z,4.70
2019-04-14T08:34:15.175Z,4.60
2019-04-14T08:38:17.074Z,4.80
2019-04-14T08:42:20.628Z,5.00
2019-04-14T08:46:31.205Z,5.00
2019-04-14T08:50:40.940Z,5.20
2019-04-14T08:54:44.503Z,5.20
2019-04-14T08:59:06.229Z,5.40
2019-04-14T09:03:11.838Z,5.60
2019-04-14T09:07:18.300Z,5.80
2019-04-14T09:11:30.578Z,5.70
2019-04-14T09:15:32.581Z,5.90
2019-04-14T09:19:34.492Z,5.90
2019-04-14T09:23:36.404Z,6.20
2019-04-14T09:27:56.620Z,6.40
2019-04-14T09:32:00.049Z,6.80
2019-04-14T09:36:02.213Z,7.00
2019-04-14T09:40:04.554Z,7.00
2019-04-14T09:44:06.578Z,7.10
2019-04-14T09:48:08.492Z,7.10
2019-04-14T09:52:10.417Z,7.40
2019-04-14T09:56:12.294Z,7.50
2019-04-14T10:00:15.991Z,7.80
2019-04-14T10:04:17.894Z,7.80
2019-04-14T10:08:19.835Z,8.10
2019-04-14T10:12:21.806Z,8.10
2019-04-14T10:16:23.721Z,8.20
2019-04-14T10:20:25.621Z,8.20
2019-04-14T10:24:27.730Z,8.60
2019-04-14T10:28:29.632Z,8.80
2019-04-14T10:32:31.542Z,7.80
2019-04-14T10:36:33.558Z,9.30
2019-04-14T10:40:35.461Z,9.20
2019-04-14T10:44:37.395Z,9.20
2019-04-14T10:48:58.079Z,9.00
2019-04-14T10:52:59.983Z,9.60
2019-04-14T10:57:02.187Z,10.00
2019-04-14T11:01:05.436Z,10.00
2019-04-14T11:05:08.971Z,9.70
2019-04-14T11:09:16.868Z,9.10
2019-04-14T11:13:18.775Z,9.10
2019-04-14T11:17:21.639Z,9.00
2019-04-14T11:21:23.546Z,9.00
2019-04-14T11:25:25.478Z,9.30
2019-04-14T11:29:27.372Z,9.50
2019-04-14T11:33:33.796Z,9.20
2019-04-14T11:37:53.844Z,9.60
2019-04-14T11:41:55.758Z,9.50
2019-04-14T11:45:57.738Z,9.30
2019-04-14T11:49:59.689Z,9.60
2019-04-14T11:54:02.673Z,9.60
2019-04-14T11:58:04.582Z,9.90
2019-04-14T12:02:20.391Z,9.60
2019-04-14T12:06:33.123Z,9.70
2019-04-14T12:10:36.108Z,9.40
2019-04-14T12:14:38.092Z,9.20
2019-04-14T12:18:52.739Z,9.60
2019-04-14T12:22:54.649Z,9.40
2019-04-14T12:26:56.550Z,9.30
2019-04-14T12:30:59.684Z,9.20
2019-04-14T12:35:01.710Z,9.20
2019-04-14T12:39:07.639Z,9.40
2019-04-14T12:43:11.182Z,10.00
2019-04-14T12:47:29.929Z,10.00
2019-04-14T12:51:42.394Z,9.50
2019-04-14T12:55:44.317Z,9.30
2019-04-14T12:59:46.245Z,8.90
2019-04-14T13:03:48.143Z,9.00
2019-04-14T13:07:50.186Z,8.80
2019-04-14T13:11:52.239Z,8.50
2019-04-14T13:15:54.172Z,8.40
2019-04-14T13:19:56.075Z,8.60
2019-04-14T13:23:57.971Z,8.40
2019-04-14T13:27:59.883Z,8.10
2019-04-14T13:32:02.942Z,7.90
2019-04-14T13:36:05.188Z,7.90
2019-04-14T13:40:07.510Z,7.80
2019-04-14T13:44:09.407Z,7.20
2019-04-14T13:48:11.317Z,7.00
2019-04-14T13:52:13.323Z,7.10
2019-04-14T13:56:15.243Z,7.00
2019-04-14T14:00:18.071Z,7.10
2019-04-14T14:04:19.969Z,7.10
2019-04-14T14:08:21.897Z,7.00
2019-04-14T14:12:41.532Z,6.80
2019-04-14T14:17:00.056Z,6.90
2019-04-14T14:21:06.430Z,6.90
2019-04-14T14:25:11.161Z,6.90
2019-04-14T14:29:13.295Z,6.90
2019-04-14T14:33:15.196Z,6.80
2019-04-14T14:37:17.105Z,6.80
2019-04-14T14:41:19.094Z,6.70
2019-04-14T14:45:26.487Z,6.60
2019-04-14T14:49:31.125Z,6.60
2019-04-14T14:53:33.107Z,6.50
2019-04-14T14:57:35.078Z,6.60
2019-04-14T15:01:36.995Z,6.50
2019-04-14T15:05:38.922Z,6.40
2019-04-14T15:09:40.819Z,6.50
2019-04-14T15:13:42.733Z,6.40
2019-04-14T15:17:44.640Z,6.40
2019-04-14T15:21:46.550Z,6.50
2019-04-14T15:25:48.454Z,6.30
2019-04-14T15:30:10.816Z,6.10
2019-04-14T15:34:31.498Z,6.10
2019-04-14T15:38:48.248Z,6.00
2019-04-14T15:42:50.115Z,5.90
2019-04-14T15:46:52.012Z,6.00
2019-04-14T15:50:53.919Z,6.00
2019-04-14T15:54:55.809Z,5.90
2019-04-14T15:59:02.070Z,5.90
2019-04-14T16:03:20.983Z,5.90
2019-04-14T16:07:24.529Z,6.00
2019-04-14T16:11:46.551Z,6.10
2019-04-14T16:16:07.929Z,6.10
2019-04-14T16:20:14.696Z,6.00
2019-04-14T16:24:16.604Z,6.00
2019-04-14T16:28:20.160Z,6.10
2019-04-14T16:32:38.380Z,6.10
2019-04-14T16:36:41.361Z,5.90
2019-04-14T16:40:43.269Z,6.00
2019-04-14T16:44:45.347Z,6.00
2019-04-14T16:48:47.254Z,6.00
2019-04-14T16:52:50.804Z,6.00
2019-04-14T16:56:54.352Z,5.90
2019-04-14T17:01:17.225Z,5.90
2019-04-14T17:05:19.207Z,5.80
2019-04-14T17:09:21.121Z,5.70
2019-04-14T17:13:24.756Z,5.60
2019-04-14T17:17:44.269Z,5.70
2019-04-14T17:21:50.539Z,5.70
2019-04-14T17:26:12.265Z,5.70
2019-04-14T17:30:16.112Z,5.60
2019-04-14T17:34:25.362Z,5.60
2019-04-14T17:38:40.169Z,5.40
2019-04-14T17:42:52.922Z,5.40
2019-04-14T17:46:57.540Z,5.50
2019-04-14T17:51:03.456Z,5.40
2019-04-14T17:55:16.688Z,5.50
2019-04-14T17:59:26.159Z,5.50
2019-04-14T18:03:32.397Z,5.60
2019-04-14T18:07:35.940Z,5.50
2019-04-14T18:11:41.907Z,5.50
2019-04-14T18:15:51.419Z,5.50
2019-04-14T18:19:54.971Z,5.50
2019-04-14T18:23:56.861Z,5.50
2019-04-14T18:28:09.145Z,5.40
2019-04-14T18:32:12.708Z,5.50
2019-04-14T18:36:34.583Z,5.40
2019-04-14T18:40:39.210Z,5.40
2019-04-14T18:44:43.971Z,5.40
2019-04-14T18:48:50.481Z,5.60
2019-04-14T18:53:10.250Z,5.40
2019-04-14T18:57:13.798Z,5.40
2019-04-14T19:01:17.343Z,5.40
2019-04-14T19:05:19.240Z,5.30
2019-04-14T19:09:21.176Z,5.40
2019-04-14T19:13:30.802Z,5.40
2019-04-14T19:17:38.610Z,5.50
2019-04-14T19:21:40.618Z,5.40
2019-04-14T19:25:42.679Z,5.20
2019-04-14T19:29:44.591Z,5.30
2019-04-14T19:33:49.827Z,5.30
2019-04-14T19:37:51.743Z,5.20
2019-04-14T19:41:53.664Z,5.30
2019-04-14T19:45:56.552Z,5.30
2019-04-14T19:49:58.619Z,5.40
2019-04-14T19:54:00.604Z,5.30
2019-04-14T19:58:02.519Z,5.30
2019-04-14T20:02:04.504Z,5.40
2019-04-14T20:06:06.569Z,5.30
2019-04-14T20:10:10.129Z,5.30
2019-04-14T20:14:12.188Z,5.30
2019-04-14T20:18:24.700Z,5.30
2019-04-14T20:22:28.250Z,5.30
2019-04-14T20:26:31.939Z,5.30
2019-04-14T20:30:41.637Z,5.30
2019-04-14T20:34:43.599Z,5.30
2019-04-14T20:38:45.460Z,5.30
2019-04-14T20:42:48.342Z,5.30
2019-04-14T20:46:50.340Z,5.20
2019-04-14T20:50:52.239Z,5.30
2019-04-14T20:54:54.128Z,5.30
2019-04-14T20:58:56.040Z,5.30
2019-04-14T21:03:14.496Z,5.20
2019-04-14T21:07:53.304Z,5.20
2019-04-14T21:12:13.580Z,5.10
2019-04-14T21:16:32.365Z,5.20
2019-04-14T21:20:44.899Z,5.10
2019-04-14T21:25:04.486Z,5.10
2019-04-14T21:29:10.976Z,5.00
2019-04-14T21:33:17.508Z,5.10
2019-04-14T21:37:21.045Z,5.10
2019-04-14T21:41:24.603Z,5.00
2019-04-14T21:45:26.516Z,5.10
2019-04-14T21:49:28.428Z,5.00
2019-04-14T21:53:30.353Z,3.10
2019-04-14T21:57:39.405Z,4.90
2019-04-14T22:01:59.354Z,4.90
2019-04-14T22:06:12.068Z,4.90
2019-04-14T22:10:16.746Z,4.90
2019-04-14T22:14:18.650Z,4.90
2019-04-14T22:18:20.561Z,5.00
2019-04-14T22:22:22.474Z,5.00
2019-04-14T22:26:26.192Z,5.00
2019-04-14T22:30:28.037Z,5.00
2019-04-14T22:34:29.979Z,4.90
2019-04-14T22:38:31.916Z,5.00
2019-04-14T22:42:33.854Z,5.00
2019-04-14T22:46:35.758Z,5.00
2019-04-14T22:50:37.691Z,5.00
2019-04-14T22:54:39.606Z,5.00
2019-04-14T22:58:42.804Z,5.00
2019-04-14T23:02:46.288Z,5.10
2019-04-14T23:07:05.969Z,5.10
2019-04-14T23:11:09.503Z,5.00
2019-04-14T23:15:31.485Z,5.00
2019-04-14T23:19:58.244Z,5.00
2019-04-14T23:24:16.546Z,5.00
2019-04-14T23:28:18.456Z,5.00
2019-04-14T23:32:20.434Z,5.00
2019-04-14T23:36:22.356Z,5.00
2019-04-14T23:40:24.266Z,5.00
2019-04-14T23:44:26.197Z,5.00
2019-04-14T23:48:28.104Z,5.00
2019-04-14T23:52:30.002Z,5.00
2019-04-14T23:56:31.923Z,4.90
